sensor_id;sensor_type;location;lat;lon;timestamp;P1;durP1;ratioP1;P2;durP2;ratioP2
56255;SDS011;57229;51.432;-2.598;2022-10-30T00:01:52;11.00;;;3.08;;
56255;SDS011;57229;51.432;-2.598;2022-10-30T00:04:21;9.45;;;2.95;;
56255;SDS011;57229;51.432;-2.598;2022-10-30T00:06:48;10.10;;;3.15;;
56255;SDS011;57229;51.432;-2.598;2022-10-30T00:09:14;10.98;;;3.28;;
56255;SDS011;57229;51.432;-2.598;2022-10-30T00:11:40;14.32;;;3.30;;
56255;SDS011;57229;51.432;-2.598;2022-10-30T00:14:06;8.60;;;2.85;;
56255;SDS011;57229;51.432;-2.598;2022-10-30T00:16:32;12.40;;;3.33;;
56255;SDS011;57229;51.432;-2.598;2022-10-30T00:18:59;14.50;;;3.53;;
56255;SDS011;57229;51.432;-2.598;2022-10-30T00:21:24;9.60;;;3.13;;
56255;SDS011;57229;51.432;-2.598;2022-10-30T00:23:51;10.18;;;3.40;;
56255;SDS011;57229;51.432;-2.598;2022-10-30T00:26:19;10.30;;;3.38;;
56255;SDS011;57229;51.432;-2.598;2022-10-30T00:28:50;10.75;;;3.25;;
56255;SDS011;57229;51.432;-2.598;2022-10-30T00:31:24;8.77;;;3.33;;
56255;SDS011;57229;51.432;-2.598;2022-10-30T00:33:51;9.23;;;2.78;;
56255;SDS011;57229;51.432;-2.598;2022-10-30T00:36:17;10.20;;;2.95;;
56255;SDS011;57229;51.432;-2.598;2022-10-30T00:39:17;9.75;;;3.33;;
56255;SDS011;57229;51.432;-2.598;2022-10-30T00:41:53;10.07;;;3.72;;
56255;SDS011;57229;51.432;-2.598;2022-10-30T00:50:24;10.63;;;3.17;;
56255;SDS011;57229;51.432;-2.598;2022-10-30T00:53:02;10.65;;;3.10;;
56255;SDS011;57229;51.432;-2.598;2022-10-30T00:55:39;16.23;;;3.13;;
56255;SDS011;57229;51.432;-2.598;2022-10-30T00:58:14;12.25;;;3.15;;
56255;SDS011;57229;51.432;-2.598;2022-10-30T01:00:43;10.95;;;3.20;;
56255;SDS011;57229;51.432;-2.598;2022-10-30T01:03:15;8.70;;;3.10;;
56255;SDS011;57229;51.432;-2.598;2022-10-30T01:05:56;5.93;;;3.15;;
56255;SDS011;57229;51.432;-2.598;2022-10-30T01:08:36;9.60;;;3.05;;
56255;SDS011;57229;51.432;-2.598;2022-10-30T01:11:09;12.35;;;3.95;;
56255;SDS011;57229;51.432;-2.598;2022-10-30T01:13:36;11.73;;;3.58;;
56255;SDS011;57229;51.432;-2.598;2022-10-30T01:19:11;9.43;;;3.25;;
56255;SDS011;57229;51.432;-2.598;2022-10-30T01:21:53;12.95;;;3.22;;
56255;SDS011;57229;51.432;-2.598;2022-10-30T01:38:38;10.88;;;3.50;;
56255;SDS011;57229;51.432;-2.598;2022-10-30T01:41:15;8.52;;;2.70;;
56255;SDS011;57229;51.432;-2.598;2022-10-30T01:43:41;9.40;;;3.10;;
56255;SDS011;57229;51.432;-2.598;2022-10-30T01:46:13;10.35;;;2.95;;
56255;SDS011;57229;51.432;-2.598;2022-10-30T01:57:59;10.15;;;3.30;;
56255;SDS011;57229;51.432;-2.598;2022-10-30T02:00:39;8.95;;;3.10;;
56255;SDS011;57229;51.432;-2.598;2022-10-30T02:03:07;10.80;;;2.80;;
56255;SDS011;57229;51.432;-2.598;2022-10-30T02:05:41;6.68;;;3.10;;
56255;SDS011;57229;51.432;-2.598;2022-10-30T02:08:13;9.82;;;3.05;;
56255;SDS011;57229;51.432;-2.598;2022-10-30T02:10:43;11.25;;;3.05;;
56255;SDS011;57229;51.432;-2.598;2022-10-30T02:13:12;7.68;;;2.70;;
56255;SDS011;57229;51.432;-2.598;2022-10-30T02:15:43;10.32;;;3.17;;
56255;SDS011;57229;51.432;-2.598;2022-10-30T02:18:11;9.75;;;3.33;;
56255;SDS011;57229;51.432;-2.598;2022-10-30T02:20:40;6.80;;;3.00;;
56255;SDS011;57229;51.432;-2.598;2022-10-30T02:23:06;9.60;;;3.20;;
56255;SDS011;57229;51.432;-2.598;2022-10-30T02:25:36;9.25;;;2.83;;
56255;SDS011;57229;51.432;-2.598;2022-10-30T02:28:02;9.68;;;3.22;;
56255;SDS011;57229;51.432;-2.598;2022-10-30T02:30:31;6.50;;;2.50;;
56255;SDS011;57229;51.432;-2.598;2022-10-30T02:32:57;11.23;;;3.10;;
56255;SDS011;57229;51.432;-2.598;2022-10-30T02:38:02;9.52;;;2.92;;
56255;SDS011;57229;51.432;-2.598;2022-10-30T02:40:32;9.30;;;3.10;;
56255;SDS011;57229;51.432;-2.598;2022-10-30T02:42:58;10.55;;;3.15;;
56255;SDS011;57229;51.432;-2.598;2022-10-30T02:45:24;8.90;;;2.90;;
56255;SDS011;57229;51.432;-2.598;2022-10-30T02:47:49;7.00;;;2.78;;
56255;SDS011;57229;51.432;-2.598;2022-10-30T02:50:33;9.40;;;2.92;;
56255;SDS011;57229;51.432;-2.598;2022-10-30T02:52:59;6.78;;;2.67;;
56255;SDS011;57229;51.432;-2.598;2022-10-30T02:58:25;8.50;;;3.15;;
56255;SDS011;57229;51.432;-2.598;2022-10-30T03:00:51;9.50;;;3.20;;
56255;SDS011;57229;51.432;-2.598;2022-10-30T03:03:17;7.20;;;3.15;;
56255;SDS011;57229;51.432;-2.598;2022-10-30T03:05:42;7.13;;;2.88;;
56255;SDS011;57229;51.432;-2.598;2022-10-30T03:08:09;8.60;;;2.97;;
56255;SDS011;57229;51.432;-2.598;2022-10-30T03:10:34;8.57;;;3.05;;
56255;SDS011;57229;51.432;-2.598;2022-10-30T03:13:00;9.98;;;2.90;;
56255;SDS011;57229;51.432;-2.598;2022-10-30T03:15:26;9.10;;;2.95;;
56255;SDS011;57229;51.432;-2.598;2022-10-30T03:17:56;10.13;;;3.35;;
56255;SDS011;57229;51.432;-2.598;2022-10-30T03:20:22;11.52;;;3.33;;
56255;SDS011;57229;51.432;-2.598;2022-10-30T03:22:47;11.57;;;3.38;;
56255;SDS011;57229;51.432;-2.598;2022-10-30T03:25:13;9.45;;;3.20;;
56255;SDS011;57229;51.432;-2.598;2022-10-30T03:30:45;11.63;;;2.90;;
56255;SDS011;57229;51.432;-2.598;2022-10-30T03:33:11;9.45;;;3.17;;
56255;SDS011;57229;51.432;-2.598;2022-10-30T03:35:47;9.88;;;3.30;;
56255;SDS011;57229;51.432;-2.598;2022-10-30T03:38:13;7.32;;;2.85;;
56255;SDS011;57229;51.432;-2.598;2022-10-30T03:40:39;7.80;;;2.95;;
56255;SDS011;57229;51.432;-2.598;2022-10-30T03:43:05;8.90;;;3.15;;
56255;SDS011;57229;51.432;-2.598;2022-10-30T03:45:34;11.38;;;3.55;;
56255;SDS011;57229;51.432;-2.598;2022-10-30T03:48:00;9.88;;;2.97;;
56255;SDS011;57229;51.432;-2.598;2022-10-30T03:50:27;11.38;;;3.38;;
56255;SDS011;57229;51.432;-2.598;2022-10-30T03:55:51;10.50;;;3.30;;
56255;SDS011;57229;51.432;-2.598;2022-10-30T03:58:17;8.93;;;3.05;;
56255;SDS011;57229;51.432;-2.598;2022-10-30T04:00:49;13.25;;;3.60;;
56255;SDS011;57229;51.432;-2.598;2022-10-30T04:03:15;10.77;;;3.20;;
56255;SDS011;57229;51.432;-2.598;2022-10-30T04:06:05;10.27;;;3.15;;
56255;SDS011;57229;51.432;-2.598;2022-10-30T04:08:31;10.52;;;3.10;;
56255;SDS011;57229;51.432;-2.598;2022-10-30T04:10:57;11.02;;;3.20;;
56255;SDS011;57229;51.432;-2.598;2022-10-30T04:13:23;10.30;;;3.05;;
56255;SDS011;57229;51.432;-2.598;2022-10-30T04:15:49;9.50;;;3.05;;
56255;SDS011;57229;51.432;-2.598;2022-10-30T04:18:15;12.57;;;3.50;;
56255;SDS011;57229;51.432;-2.598;2022-10-30T04:20:41;9.90;;;3.20;;
56255;SDS011;57229;51.432;-2.598;2022-10-30T04:23:09;10.07;;;3.10;;
56255;SDS011;57229;51.432;-2.598;2022-10-30T04:25:38;11.82;;;3.47;;
56255;SDS011;57229;51.432;-2.598;2022-10-30T04:28:04;8.45;;;3.33;;
56255;SDS011;57229;51.432;-2.598;2022-10-30T04:30:30;9.15;;;3.17;;
56255;SDS011;57229;51.432;-2.598;2022-10-30T04:33:01;10.02;;;3.13;;
56255;SDS011;57229;51.432;-2.598;2022-10-30T04:35:29;9.75;;;2.72;;
56255;SDS011;57229;51.432;-2.598;2022-10-30T04:37:57;9.80;;;3.05;;
56255;SDS011;57229;51.432;-2.598;2022-10-30T04:40:25;10.50;;;3.08;;
56255;SDS011;57229;51.432;-2.598;2022-10-30T04:42:53;10.18;;;2.92;;
56255;SDS011;57229;51.432;-2.598;2022-10-30T04:45:19;9.38;;;3.08;;
56255;SDS011;57229;51.432;-2.598;2022-10-30T04:47:45;13.10;;;3.42;;
56255;SDS011;57229;51.432;-2.598;2022-10-30T04:50:12;13.15;;;3.60;;
56255;SDS011;57229;51.432;-2.598;2022-10-30T04:52:39;8.25;;;3.13;;
56255;SDS011;57229;51.432;-2.598;2022-10-30T04:55:05;10.65;;;2.85;;
56255;SDS011;57229;51.432;-2.598;2022-10-30T04:57:32;12.05;;;2.95;;
56255;SDS011;57229;51.432;-2.598;2022-10-30T04:59:59;12.93;;;3.20;;
56255;SDS011;57229;51.432;-2.598;2022-10-30T05:02:25;8.48;;;3.20;;
56255;SDS011;57229;51.432;-2.598;2022-10-30T05:04:54;9.55;;;3.05;;
56255;SDS011;57229;51.432;-2.598;2022-10-30T05:07:20;11.75;;;3.13;;
56255;SDS011;57229;51.432;-2.598;2022-10-30T05:09:49;6.85;;;3.10;;
56255;SDS011;57229;51.432;-2.598;2022-10-30T05:12:15;11.10;;;3.35;;
56255;SDS011;57229;51.432;-2.598;2022-10-30T05:14:42;9.75;;;3.10;;
56255;SDS011;57229;51.432;-2.598;2022-10-30T05:17:08;6.30;;;2.72;;
56255;SDS011;57229;51.432;-2.598;2022-10-30T05:19:34;8.77;;;3.38;;
56255;SDS011;57229;51.432;-2.598;2022-10-30T05:21:59;8.50;;;3.15;;
56255;SDS011;57229;51.432;-2.598;2022-10-30T05:24:25;10.05;;;3.15;;
56255;SDS011;57229;51.432;-2.598;2022-10-30T05:26:50;10.35;;;3.70;;
56255;SDS011;57229;51.432;-2.598;2022-10-30T05:29:16;8.25;;;2.75;;
56255;SDS011;57229;51.432;-2.598;2022-10-30T05:31:42;7.53;;;2.78;;
56255;SDS011;57229;51.432;-2.598;2022-10-30T05:34:07;11.23;;;2.92;;
56255;SDS011;57229;51.432;-2.598;2022-10-30T05:36:33;9.82;;;3.25;;
56255;SDS011;57229;51.432;-2.598;2022-10-30T05:38:59;9.88;;;3.00;;
56255;SDS011;57229;51.432;-2.598;2022-10-30T05:41:26;11.07;;;2.85;;
56255;SDS011;57229;51.432;-2.598;2022-10-30T05:43:53;8.20;;;2.95;;
56255;SDS011;57229;51.432;-2.598;2022-10-30T05:46:19;11.43;;;2.75;;
56255;SDS011;57229;51.432;-2.598;2022-10-30T05:48:46;9.40;;;3.08;;
56255;SDS011;57229;51.432;-2.598;2022-10-30T05:51:15;9.68;;;2.90;;
56255;SDS011;57229;51.432;-2.598;2022-10-30T05:53:41;10.27;;;3.00;;
56255;SDS011;57229;51.432;-2.598;2022-10-30T05:56:07;7.75;;;2.97;;
56255;SDS011;57229;51.432;-2.598;2022-10-30T05:58:34;9.40;;;2.85;;
56255;SDS011;57229;51.432;-2.598;2022-10-30T06:00:59;10.30;;;3.22;;
56255;SDS011;57229;51.432;-2.598;2022-10-30T06:03:29;11.63;;;3.53;;
56255;SDS011;57229;51.432;-2.598;2022-10-30T06:05:56;8.55;;;3.17;;
56255;SDS011;57229;51.432;-2.598;2022-10-30T06:08:22;7.25;;;2.60;;
56255;SDS011;57229;51.432;-2.598;2022-10-30T06:10:47;7.38;;;2.83;;
56255;SDS011;57229;51.432;-2.598;2022-10-30T06:13:13;12.18;;;3.38;;
56255;SDS011;57229;51.432;-2.598;2022-10-30T06:15:38;8.10;;;3.22;;
56255;SDS011;57229;51.432;-2.598;2022-10-30T06:18:04;8.32;;;2.63;;
56255;SDS011;57229;51.432;-2.598;2022-10-30T06:20:31;8.52;;;2.92;;
56255;SDS011;57229;51.432;-2.598;2022-10-30T06:25:43;9.95;;;2.97;;
56255;SDS011;57229;51.432;-2.598;2022-10-30T06:28:09;11.07;;;3.00;;
56255;SDS011;57229;51.432;-2.598;2022-10-30T06:33:35;8.98;;;3.03;;
56255;SDS011;57229;51.432;-2.598;2022-10-30T06:36:01;10.45;;;3.40;;
56255;SDS011;57229;51.432;-2.598;2022-10-30T06:38:27;13.07;;;3.35;;
56255;SDS011;57229;51.432;-2.598;2022-10-30T06:40:52;11.93;;;3.10;;
56255;SDS011;57229;51.432;-2.598;2022-10-30T06:43:18;11.23;;;3.20;;
56255;SDS011;57229;51.432;-2.598;2022-10-30T06:45:44;9.35;;;3.10;;
56255;SDS011;57229;51.432;-2.598;2022-10-30T06:48:10;11.10;;;3.42;;
56255;SDS011;57229;51.432;-2.598;2022-10-30T06:50:36;12.50;;;3.38;;
56255;SDS011;57229;51.432;-2.598;2022-10-30T06:53:01;9.95;;;3.10;;
56255;SDS011;57229;51.432;-2.598;2022-10-30T06:55:27;10.98;;;3.08;;
56255;SDS011;57229;51.432;-2.598;2022-10-30T06:57:53;11.18;;;2.95;;
56255;SDS011;57229;51.432;-2.598;2022-10-30T07:00:20;11.50;;;2.80;;
56255;SDS011;57229;51.432;-2.598;2022-10-30T07:02:53;9.77;;;3.45;;
56255;SDS011;57229;51.432;-2.598;2022-10-30T07:05:20;11.43;;;2.97;;
56255;SDS011;57229;51.432;-2.598;2022-10-30T07:07:45;10.20;;;3.03;;
56255;SDS011;57229;51.432;-2.598;2022-10-30T07:10:11;11.63;;;3.20;;
56255;SDS011;57229;51.432;-2.598;2022-10-30T07:12:37;9.40;;;3.10;;
56255;SDS011;57229;51.432;-2.598;2022-10-30T07:15:02;8.75;;;3.25;;
56255;SDS011;57229;51.432;-2.598;2022-10-30T07:17:28;8.13;;;3.17;;
56255;SDS011;57229;51.432;-2.598;2022-10-30T07:19:55;8.60;;;3.00;;
56255;SDS011;57229;51.432;-2.598;2022-10-30T07:22:21;10.77;;;2.85;;
56255;SDS011;57229;51.432;-2.598;2022-10-30T07:24:46;8.45;;;2.63;;
56255;SDS011;57229;51.432;-2.598;2022-10-30T07:27:12;13.32;;;3.50;;
56255;SDS011;57229;51.432;-2.598;2022-10-30T07:29:37;9.85;;;3.05;;
56255;SDS011;57229;51.432;-2.598;2022-10-30T07:32:03;10.48;;;2.85;;
56255;SDS011;57229;51.432;-2.598;2022-10-30T07:34:29;11.85;;;3.05;;
56255;SDS011;57229;51.432;-2.598;2022-10-30T07:36:55;10.38;;;3.00;;
56255;SDS011;57229;51.432;-2.598;2022-10-30T07:39:21;8.45;;;2.88;;
56255;SDS011;57229;51.432;-2.598;2022-10-30T07:41:51;12.07;;;3.17;;
56255;SDS011;57229;51.432;-2.598;2022-10-30T07:44:17;8.13;;;3.05;;
56255;SDS011;57229;51.432;-2.598;2022-10-30T07:46:42;11.32;;;3.17;;
56255;SDS011;57229;51.432;-2.598;2022-10-30T07:49:08;10.15;;;3.13;;
56255;SDS011;57229;51.432;-2.598;2022-10-30T07:51:33;10.65;;;3.08;;
56255;SDS011;57229;51.432;-2.598;2022-10-30T07:53:59;12.07;;;3.08;;
56255;SDS011;57229;51.432;-2.598;2022-10-30T07:56:25;12.90;;;3.13;;
56255;SDS011;57229;51.432;-2.598;2022-10-30T07:58:50;8.20;;;3.17;;
56255;SDS011;57229;51.432;-2.598;2022-10-30T08:01:16;11.95;;;3.17;;
56255;SDS011;57229;51.432;-2.598;2022-10-30T08:03:42;12.35;;;3.20;;
56255;SDS011;57229;51.432;-2.598;2022-10-30T08:06:07;14.00;;;3.33;;
56255;SDS011;57229;51.432;-2.598;2022-10-30T08:08:33;14.82;;;3.60;;
56255;SDS011;57229;51.432;-2.598;2022-10-30T08:11:00;13.05;;;3.53;;
56255;SDS011;57229;51.432;-2.598;2022-10-30T08:13:25;9.98;;;4.00;;
56255;SDS011;57229;51.432;-2.598;2022-10-30T08:15:51;12.07;;;3.33;;
56255;SDS011;57229;51.432;-2.598;2022-10-30T08:18:16;10.05;;;3.40;;
56255;SDS011;57229;51.432;-2.598;2022-10-30T08:20:43;14.73;;;3.80;;
56255;SDS011;57229;51.432;-2.598;2022-10-30T08:23:14;14.93;;;3.53;;
56255;SDS011;57229;51.432;-2.598;2022-10-30T08:25:41;11.23;;;3.42;;
56255;SDS011;57229;51.432;-2.598;2022-10-30T08:28:07;12.88;;;4.00;;
56255;SDS011;57229;51.432;-2.598;2022-10-30T08:30:35;11.52;;;3.38;;
56255;SDS011;57229;51.432;-2.598;2022-10-30T08:33:03;10.95;;;3.67;;
56255;SDS011;57229;51.432;-2.598;2022-10-30T08:35:30;13.80;;;3.38;;
56255;SDS011;57229;51.432;-2.598;2022-10-30T08:37:57;10.30;;;3.53;;
56255;SDS011;57229;51.432;-2.598;2022-10-30T08:40:24;13.82;;;3.20;;
56255;SDS011;57229;51.432;-2.598;2022-10-30T08:42:54;12.93;;;3.25;;
56255;SDS011;57229;51.432;-2.598;2022-10-30T08:45:21;12.77;;;3.30;;
56255;SDS011;57229;51.432;-2.598;2022-10-30T08:47:48;11.23;;;3.13;;
56255;SDS011;57229;51.432;-2.598;2022-10-30T08:50:21;12.18;;;2.83;;
56255;SDS011;57229;51.432;-2.598;2022-10-30T08:52:48;13.57;;;3.25;;
56255;SDS011;57229;51.432;-2.598;2022-10-30T08:55:14;11.32;;;3.70;;
56255;SDS011;57229;51.432;-2.598;2022-10-30T08:57:40;11.90;;;3.10;;
56255;SDS011;57229;51.432;-2.598;2022-10-30T09:00:27;10.55;;;3.42;;
56255;SDS011;57229;51.432;-2.598;2022-10-30T09:02:53;9.52;;;3.38;;
56255;SDS011;57229;51.432;-2.598;2022-10-30T09:05:19;12.00;;;3.17;;
56255;SDS011;57229;51.432;-2.598;2022-10-30T09:07:45;9.82;;;3.25;;
56255;SDS011;57229;51.432;-2.598;2022-10-30T09:10:11;12.00;;;3.40;;
56255;SDS011;57229;51.432;-2.598;2022-10-30T09:12:37;9.93;;;3.33;;
56255;SDS011;57229;51.432;-2.598;2022-10-30T09:15:04;15.15;;;3.03;;
56255;SDS011;57229;51.432;-2.598;2022-10-30T09:17:31;10.07;;;3.20;;
56255;SDS011;57229;51.432;-2.598;2022-10-30T09:19:56;10.32;;;2.97;;
56255;SDS011;57229;51.432;-2.598;2022-10-30T09:22:22;14.77;;;3.50;;
56255;SDS011;57229;51.432;-2.598;2022-10-30T09:24:48;11.32;;;3.20;;
56255;SDS011;57229;51.432;-2.598;2022-10-30T09:27:14;9.73;;;3.45;;
56255;SDS011;57229;51.432;-2.598;2022-10-30T09:29:40;11.63;;;3.53;;
56255;SDS011;57229;51.432;-2.598;2022-10-30T09:32:06;11.15;;;3.25;;
56255;SDS011;57229;51.432;-2.598;2022-10-30T09:34:35;11.13;;;2.92;;
56255;SDS011;57229;51.432;-2.598;2022-10-30T09:37:02;10.88;;;3.53;;
56255;SDS011;57229;51.432;-2.598;2022-10-30T09:39:28;8.52;;;3.28;;
56255;SDS011;57229;51.432;-2.598;2022-10-30T09:45:03;12.02;;;3.03;;
56255;SDS011;57229;51.432;-2.598;2022-10-30T09:48:09;11.65;;;3.00;;
56255;SDS011;57229;51.432;-2.598;2022-10-30T09:57:10;8.50;;;2.97;;
56255;SDS011;57229;51.432;-2.598;2022-10-30T10:05:46;13.13;;;3.03;;
56255;SDS011;57229;51.432;-2.598;2022-10-30T10:08:19;10.10;;;2.88;;
56255;SDS011;57229;51.432;-2.598;2022-10-30T10:10:50;12.93;;;2.97;;
56255;SDS011;57229;51.432;-2.598;2022-10-30T10:13:44;9.63;;;2.75;;
56255;SDS011;57229;51.432;-2.598;2022-10-30T10:16:16;19.38;;;3.53;;
56255;SDS011;57229;51.432;-2.598;2022-10-30T10:19:08;18.88;;;3.60;;
56255;SDS011;57229;51.432;-2.598;2022-10-30T10:21:40;15.20;;;3.28;;
56255;SDS011;57229;51.432;-2.598;2022-10-30T10:24:27;18.35;;;3.47;;
56255;SDS011;57229;51.432;-2.598;2022-10-30T10:27:17;8.93;;;2.80;;
56255;SDS011;57229;51.432;-2.598;2022-10-30T10:43:59;12.68;;;3.15;;
56255;SDS011;57229;51.432;-2.598;2022-10-30T10:49:13;15.18;;;2.88;;
56255;SDS011;57229;51.432;-2.598;2022-10-30T10:51:44;9.20;;;2.90;;
56255;SDS011;57229;51.432;-2.598;2022-10-30T10:57:06;8.50;;;2.80;;
56255;SDS011;57229;51.432;-2.598;2022-10-30T11:04:44;9.65;;;3.03;;
56255;SDS011;57229;51.432;-2.598;2022-10-30T11:07:38;6.40;;;3.00;;
56255;SDS011;57229;51.432;-2.598;2022-10-30T11:10:12;10.15;;;3.10;;
56255;SDS011;57229;51.432;-2.598;2022-10-30T11:12:38;12.55;;;3.20;;
56255;SDS011;57229;51.432;-2.598;2022-10-30T11:20:29;12.83;;;3.50;;
56255;SDS011;57229;51.432;-2.598;2022-10-30T11:23:02;6.65;;;2.83;;
56255;SDS011;57229;51.432;-2.598;2022-10-30T11:25:34;9.15;;;2.88;;
56255;SDS011;57229;51.432;-2.598;2022-10-30T11:28:04;9.38;;;2.70;;
56255;SDS011;57229;51.432;-2.598;2022-10-30T11:30:30;9.23;;;2.85;;
56255;SDS011;57229;51.432;-2.598;2022-10-30T11:32:57;11.57;;;2.67;;
56255;SDS011;57229;51.432;-2.598;2022-10-30T11:35:23;7.28;;;2.47;;
56255;SDS011;57229;51.432;-2.598;2022-10-30T11:38:11;8.48;;;2.58;;
56255;SDS011;57229;51.432;-2.598;2022-10-30T11:40:37;11.63;;;2.58;;
56255;SDS011;57229;51.432;-2.598;2022-10-30T11:43:07;7.10;;;2.80;;
56255;SDS011;57229;51.432;-2.598;2022-10-30T11:45:39;8.70;;;2.72;;
56255;SDS011;57229;51.432;-2.598;2022-10-30T11:51:38;14.73;;;2.53;;
56255;SDS011;57229;51.432;-2.598;2022-10-30T11:54:59;10.27;;;2.80;;
56255;SDS011;57229;51.432;-2.598;2022-10-30T11:59:59;13.18;;;3.47;;
56255;SDS011;57229;51.432;-2.598;2022-10-30T12:06:39;11.10;;;3.45;;
56255;SDS011;57229;51.432;-2.598;2022-10-30T12:09:15;9.10;;;2.72;;
56255;SDS011;57229;51.432;-2.598;2022-10-30T12:11:49;9.75;;;2.70;;
56255;SDS011;57229;51.432;-2.598;2022-10-30T12:14:19;9.57;;;3.00;;
56255;SDS011;57229;51.432;-2.598;2022-10-30T12:17:23;7.85;;;2.83;;
56255;SDS011;57229;51.432;-2.598;2022-10-30T12:20:00;8.43;;;2.42;;
56255;SDS011;57229;51.432;-2.598;2022-10-30T12:22:51;12.05;;;2.58;;
56255;SDS011;57229;51.432;-2.598;2022-10-30T12:25:40;5.35;;;2.20;;
56255;SDS011;57229;51.432;-2.598;2022-10-30T12:31:18;5.40;;;2.40;;
56255;SDS011;57229;51.432;-2.598;2022-10-30T12:34:05;8.60;;;2.40;;
56255;SDS011;57229;51.432;-2.598;2022-10-30T12:37:05;6.78;;;2.70;;
56255;SDS011;57229;51.432;-2.598;2022-10-30T12:42:30;6.88;;;2.17;;
56255;SDS011;57229;51.432;-2.598;2022-10-30T12:45:06;7.97;;;2.40;;
56255;SDS011;57229;51.432;-2.598;2022-10-30T12:50:23;7.43;;;2.20;;
56255;SDS011;57229;51.432;-2.598;2022-10-30T12:55:45;5.32;;;2.50;;
56255;SDS011;57229;51.432;-2.598;2022-10-30T13:01:22;5.82;;;2.70;;
56255;SDS011;57229;51.432;-2.598;2022-10-30T13:09:39;8.80;;;3.17;;
56255;SDS011;57229;51.432;-2.598;2022-10-30T13:12:13;8.25;;;3.08;;
56255;SDS011;57229;51.432;-2.598;2022-10-30T13:14:53;11.93;;;3.97;;
56255;SDS011;57229;51.432;-2.598;2022-10-30T13:17:28;14.63;;;3.75;;
56255;SDS011;57229;51.432;-2.598;2022-10-30T13:19:54;11.32;;;3.17;;
56255;SDS011;57229;51.432;-2.598;2022-10-30T13:22:37;16.58;;;4.07;;
56255;SDS011;57229;51.432;-2.598;2022-10-30T13:25:30;13.07;;;4.05;;
56255;SDS011;57229;51.432;-2.598;2022-10-30T13:28:11;15.45;;;4.70;;
56255;SDS011;57229;51.432;-2.598;2022-10-30T13:30:50;14.88;;;3.92;;
56255;SDS011;57229;51.432;-2.598;2022-10-30T13:33:46;16.67;;;4.47;;
56255;SDS011;57229;51.432;-2.598;2022-10-30T13:52:29;21.25;;;4.78;;
56255;SDS011;57229;51.432;-2.598;2022-10-30T13:55:03;19.77;;;4.22;;
56255;SDS011;57229;51.432;-2.598;2022-10-30T14:01:04;15.30;;;4.00;;
56255;SDS011;57229;51.432;-2.598;2022-10-30T14:03:13;11.52;;;4.07;;
56255;SDS011;57229;51.432;-2.598;2022-10-30T14:19:10;12.07;;;3.63;;
56255;SDS011;57229;51.432;-2.598;2022-10-30T14:34:42;16.75;;;4.47;;
56255;SDS011;57229;51.432;-2.598;2022-10-30T14:37:14;13.25;;;4.05;;
56255;SDS011;57229;51.432;-2.598;2022-10-30T14:39:47;15.23;;;4.60;;
56255;SDS011;57229;51.432;-2.598;2022-10-30T14:50:54;12.23;;;4.82;;
56255;SDS011;57229;51.432;-2.598;2022-10-30T14:56:06;15.30;;;5.10;;
56255;SDS011;57229;51.432;-2.598;2022-10-30T15:09:52;9.50;;;4.43;;
56255;SDS011;57229;51.432;-2.598;2022-10-30T15:13:04;11.18;;;4.70;;
56255;SDS011;57229;51.432;-2.598;2022-10-30T15:15:30;10.32;;;4.40;;
56255;SDS011;57229;51.432;-2.598;2022-10-30T15:17:57;11.88;;;4.90;;
56255;SDS011;57229;51.432;-2.598;2022-10-30T15:20:28;10.43;;;4.32;;
56255;SDS011;57229;51.432;-2.598;2022-10-30T15:26:21;9.88;;;4.20;;
56255;SDS011;57229;51.432;-2.598;2022-10-30T15:28:50;9.38;;;4.40;;
56255;SDS011;57229;51.432;-2.598;2022-10-30T15:33:45;9.98;;;4.30;;
56255;SDS011;57229;51.432;-2.598;2022-10-30T15:41:43;8.55;;;3.88;;
56255;SDS011;57229;51.432;-2.598;2022-10-30T15:44:26;11.77;;;3.90;;
56255;SDS011;57229;51.432;-2.598;2022-10-30T15:46:55;10.90;;;3.80;;
56255;SDS011;57229;51.432;-2.598;2022-10-30T15:49:35;8.18;;;3.55;;
56255;SDS011;57229;51.432;-2.598;2022-10-30T15:52:22;11.27;;;4.07;;
56255;SDS011;57229;51.432;-2.598;2022-10-30T15:54:55;10.32;;;4.05;;
56255;SDS011;57229;51.432;-2.598;2022-10-30T15:57:31;13.10;;;4.13;;
56255;SDS011;57229;51.432;-2.598;2022-10-30T16:00:01;11.23;;;3.75;;
56255;SDS011;57229;51.432;-2.598;2022-10-30T16:02:33;7.82;;;3.53;;
56255;SDS011;57229;51.432;-2.598;2022-10-30T16:05:17;24.73;;;4.30;;
56255;SDS011;57229;51.432;-2.598;2022-10-30T16:07:44;13.70;;;3.55;;
56255;SDS011;57229;51.432;-2.598;2022-10-30T16:10:13;12.90;;;3.70;;
56255;SDS011;57229;51.432;-2.598;2022-10-30T16:12:41;13.82;;;3.30;;
56255;SDS011;57229;51.432;-2.598;2022-10-30T16:15:15;19.45;;;4.05;;
56255;SDS011;57229;51.432;-2.598;2022-10-30T16:17:57;14.27;;;3.60;;
56255;SDS011;57229;51.432;-2.598;2022-10-30T16:20:25;17.17;;;4.47;;
56255;SDS011;57229;51.432;-2.598;2022-10-30T16:22:51;16.08;;;3.60;;
56255;SDS011;57229;51.432;-2.598;2022-10-30T16:25:18;12.32;;;3.50;;
56255;SDS011;57229;51.432;-2.598;2022-10-30T16:27:45;9.70;;;3.55;;
56255;SDS011;57229;51.432;-2.598;2022-10-30T16:30:14;13.25;;;3.72;;
56255;SDS011;57229;51.432;-2.598;2022-10-30T16:32:49;10.57;;;3.67;;
56255;SDS011;57229;51.432;-2.598;2022-10-30T16:35:21;10.25;;;3.55;;
56255;SDS011;57229;51.432;-2.598;2022-10-30T16:37:48;11.00;;;3.78;;
56255;SDS011;57229;51.432;-2.598;2022-10-30T16:40:15;13.30;;;3.92;;
56255;SDS011;57229;51.432;-2.598;2022-10-30T16:45:49;15.85;;;5.00;;
56255;SDS011;57229;51.432;-2.598;2022-10-30T16:48:16;13.90;;;3.67;;
56255;SDS011;57229;51.432;-2.598;2022-10-30T16:50:51;9.48;;;3.70;;
56255;SDS011;57229;51.432;-2.598;2022-10-30T16:53:23;7.30;;;3.28;;
56255;SDS011;57229;51.432;-2.598;2022-10-30T16:55:50;9.02;;;3.25;;
56255;SDS011;57229;51.432;-2.598;2022-10-30T16:58:18;12.43;;;3.10;;
56255;SDS011;57229;51.432;-2.598;2022-10-30T17:00:48;10.48;;;3.08;;
56255;SDS011;57229;51.432;-2.598;2022-10-30T17:03:20;9.07;;;2.78;;
56255;SDS011;57229;51.432;-2.598;2022-10-30T17:05:57;10.55;;;3.42;;
56255;SDS011;57229;51.432;-2.598;2022-10-30T17:08:43;10.93;;;3.20;;
56255;SDS011;57229;51.432;-2.598;2022-10-30T17:11:15;10.45;;;3.15;;
56255;SDS011;57229;51.432;-2.598;2022-10-30T17:13:55;10.93;;;3.00;;
56255;SDS011;57229;51.432;-2.598;2022-10-30T17:16:36;9.18;;;2.90;;
56255;SDS011;57229;51.432;-2.598;2022-10-30T17:21:54;11.00;;;3.00;;
56255;SDS011;57229;51.432;-2.598;2022-10-30T17:24:22;9.25;;;2.80;;
56255;SDS011;57229;51.432;-2.598;2022-10-30T17:26:57;13.20;;;3.33;;
56255;SDS011;57229;51.432;-2.598;2022-10-30T17:29:46;7.78;;;2.95;;
56255;SDS011;57229;51.432;-2.598;2022-10-30T17:32:57;17.52;;;4.53;;
56255;SDS011;57229;51.432;-2.598;2022-10-30T17:35:30;24.52;;;5.93;;
56255;SDS011;57229;51.432;-2.598;2022-10-30T17:41:43;35.08;;;8.23;;
56255;SDS011;57229;51.432;-2.598;2022-10-30T17:44:39;37.80;;;9.73;;
56255;SDS011;57229;51.432;-2.598;2022-10-30T17:47:15;44.50;;;10.57;;
56255;SDS011;57229;51.432;-2.598;2022-10-30T17:49:43;36.35;;;10.18;;
56255;SDS011;57229;51.432;-2.598;2022-10-30T17:52:13;35.67;;;9.35;;
56255;SDS011;57229;51.432;-2.598;2022-10-30T17:54:45;36.75;;;9.88;;
56255;SDS011;57229;51.432;-2.598;2022-10-30T17:57:12;38.13;;;10.02;;
56255;SDS011;57229;51.432;-2.598;2022-10-30T17:59:40;36.88;;;10.38;;
56255;SDS011;57229;51.432;-2.598;2022-10-30T18:08:42;30.00;;;9.18;;
56255;SDS011;57229;51.432;-2.598;2022-10-30T18:11:12;31.25;;;8.73;;
56255;SDS011;57229;51.432;-2.598;2022-10-30T18:13:40;33.95;;;9.30;;
56255;SDS011;57229;51.432;-2.598;2022-10-30T18:16:08;26.63;;;8.98;;
56255;SDS011;57229;51.432;-2.598;2022-10-30T18:28:44;19.13;;;7.18;;
56255;SDS011;57229;51.432;-2.598;2022-10-30T18:31:11;27.42;;;7.50;;
56255;SDS011;57229;51.432;-2.598;2022-10-30T18:36:54;18.63;;;6.20;;
56255;SDS011;57229;51.432;-2.598;2022-10-30T18:39:21;21.08;;;6.75;;
56255;SDS011;57229;51.432;-2.598;2022-10-30T18:41:46;22.13;;;5.97;;